createdAt,value
2023-04-10T00:00:41.617Z,87.63
2023-04-10T00:03:27.702Z,88.01
2023-04-10T00:06:12.941Z,88.08
2023-04-10T00:08:58.887Z,88.35
2023-04-10T00:11:44.250Z,88.35
2023-04-10T00:14:29.491Z,88.55
2023-04-10T00:17:14.873Z,88.19
2023-04-10T00:20:00.552Z,88.01
2023-04-10T00:22:45.548Z,88.28
2023-04-10T00:25:30.875Z,88.30
2023-04-10T00:28:17.304Z,88.43
2023-04-10T00:31:02.402Z,88.38
2023-04-10T00:33:47.788Z,88.78
2023-04-10T00:36:33.405Z,88.11
2023-04-10T00:39:19.034Z,88.48
2023-04-10T00:42:06.568Z,88.33
2023-04-10T00:44:51.688Z,88.86
2023-04-10T00:47:38.150Z,88.45
2023-04-10T00:50:23.520Z,87.88
2023-04-10T00:53:08.996Z,88.38
2023-04-10T00:55:55.272Z,88.71
2023-04-10T00:58:40.331Z,88.91
2023-04-10T01:01:25.814Z,88.82
2023-04-10T01:04:11.727Z,88.23
2023-04-10T01:07:15.210Z,89.03
2023-04-10T01:10:07.036Z,88.98
2023-04-10T01:13:08.793Z,88.84
2023-04-10T01:16:03.336Z,89.56
2023-04-10T01:19:01.428Z,89.07
2023-04-10T01:21:47.866Z,89.56
2023-04-10T01:25:00.440Z,89.16
2023-04-10T01:28:04.754Z,89.27
2023-04-10T01:30:58.080Z,89.88
2023-04-10T01:33:47.916Z,89.79
2023-04-10T01:36:38.033Z,89.20
2023-04-10T01:39:26.427Z,90.65
2023-04-10T01:42:15.031Z,90.19
2023-04-10T01:45:01.792Z,90.69
2023-04-10T01:47:48.302Z,89.72
2023-04-10T01:50:34.690Z,90.26
2023-04-10T01:53:20.723Z,90.94
2023-04-10T01:56:08.430Z,90.21
2023-04-10T01:58:53.859Z,90.66
2023-04-10T02:01:38.856Z,90.86
2023-04-10T02:04:26.549Z,90.30
2023-04-10T02:07:29.096Z,90.54
2023-04-10T02:10:24.760Z,90.14
2023-04-10T02:13:12.241Z,89.53
2023-04-10T02:16:04.044Z,89.42
2023-04-10T02:18:50.725Z,89.17
2023-04-10T02:21:36.682Z,90.00
2023-04-10T02:24:22.697Z,89.65
2023-04-10T02:27:07.952Z,89.79
2023-04-10T02:29:53.167Z,90.05
2023-04-10T02:32:38.693Z,89.52
2023-04-10T02:35:24.044Z,89.66
2023-04-10T02:38:09.366Z,90.00
2023-04-10T02:40:54.681Z,90.65
2023-04-10T02:43:40.471Z,90.53
2023-04-10T02:46:26.030Z,90.73
2023-04-10T02:49:11.117Z,90.36
2023-04-10T02:51:56.735Z,90.96
2023-04-10T02:54:41.801Z,91.17
2023-04-10T02:57:27.377Z,91.28
2023-04-10T03:00:13.175Z,91.89
2023-04-10T03:02:58.388Z,91.81
2023-04-10T03:05:43.906Z,91.85
2023-04-10T03:08:30.432Z,92.25
2023-04-10T03:11:15.508Z,92.64
2023-04-10T03:14:01.133Z,92.62
2023-04-10T03:16:47.848Z,92.58
2023-04-10T03:19:32.909Z,92.17
2023-04-10T03:22:18.258Z,92.14
2023-04-10T03:25:03.550Z,92.64
2023-04-10T03:27:48.986Z,92.61
2023-04-10T03:30:37.036Z,92.22
2023-04-10T03:33:22.401Z,92.78
2023-04-10T03:36:08.612Z,92.93
2023-04-10T03:38:54.069Z,93.05
2023-04-10T03:41:39.285Z,93.48
2023-04-10T03:44:24.594Z,93.57
2023-04-10T03:47:10.030Z,94.02
2023-04-10T03:49:55.050Z,93.66
2023-04-10T03:52:40.471Z,94.25
2023-04-10T03:55:25.955Z,94.44
2023-04-10T03:58:12.296Z,93.80
2023-04-10T04:00:57.790Z,94.28
2023-04-10T04:03:43.462Z,94.09
2023-04-10T04:06:29.043Z,94.45
2023-04-10T04:09:14.459Z,94.91
2023-04-10T04:11:59.444Z,95.14
2023-04-10T04:14:45.300Z,94.88
2023-04-10T04:17:30.831Z,94.86
2023-04-10T04:20:16.148Z,94.85
2023-04-10T04:23:01.511Z,94.60
2023-04-10T04:25:46.912Z,94.81
2023-04-10T04:28:32.077Z,95.13
2023-04-10T04:31:17.418Z,95.25
2023-04-10T04:34:02.698Z,95.26
2023-04-10T04:36:47.940Z,95.21
2023-04-10T04:39:33.315Z,95.08
2023-04-10T04:42:18.728Z,95.87
2023-04-10T04:45:04.267Z,95.68
2023-04-10T04:47:49.371Z,96.61
2023-04-10T04:50:35.292Z,96.84
2023-04-10T04:53:20.539Z,97.25
2023-04-10T04:56:06.370Z,96.72
2023-04-10T04:58:51.635Z,97.65
2023-04-10T05:01:37.233Z,97.02
2023-04-10T05:04:22.581Z,96.97
2023-04-10T05:07:07.717Z,98.41
2023-04-10T05:09:53.231Z,98.59
2023-04-10T05:12:38.587Z,98.89
2023-04-10T05:15:24.338Z,99.81
2023-04-10T05:18:09.549Z,99.41
2023-04-10T05:20:54.903Z,99.22
2023-04-10T05:23:40.405Z,99.98
2023-04-10T05:26:25.671Z,100.00
2023-04-10T05:29:11.017Z,99.79
2023-04-10T05:31:56.395Z,100.00
2023-04-10T05:34:41.600Z,100.00
2023-04-10T05:37:26.953Z,100.00
2023-04-10T05:40:12.223Z,100.00
2023-04-10T05:42:57.765Z,100.00
2023-04-10T05:45:46.166Z,100.00
2023-04-10T05:48:31.561Z,100.00
2023-04-10T05:51:17.042Z,100.00
2023-04-10T05:54:02.167Z,100.00
2023-04-10T05:56:47.523Z,100.00
2023-04-10T05:59:32.757Z,100.00
2023-04-10T06:02:19.359Z,100.00
2023-04-10T06:05:05.338Z,100.00
2023-04-10T06:07:51.713Z,100.00
2023-04-10T06:10:36.994Z,100.00
2023-04-10T06:13:22.533Z,100.00
2023-04-10T06:16:08.551Z,100.00
2023-04-10T06:18:54.467Z,100.00
2023-04-10T06:21:40.152Z,100.00
2023-04-10T06:24:25.462Z,100.00
2023-04-10T06:27:10.662Z,100.00
2023-04-10T06:29:56.320Z,100.00
2023-04-10T06:32:41.835Z,100.00
2023-04-10T06:35:27.453Z,100.00
2023-04-10T06:38:12.742Z,100.00
2023-04-10T06:40:58.308Z,100.00
2023-04-10T06:43:43.792Z,100.00
2023-04-10T06:46:29.070Z,100.00
2023-04-10T06:49:14.354Z,100.00
2023-04-10T06:51:59.447Z,100.00
2023-04-10T06:54:44.675Z,100.00
2023-04-10T06:57:29.867Z,100.00
2023-04-10T07:00:15.690Z,100.00
2023-04-10T07:03:00.946Z,100.00
2023-04-10T07:05:46.522Z,100.00
2023-04-10T07:08:31.529Z,100.00
2023-04-10T07:11:17.212Z,100.00
2023-04-10T07:14:02.193Z,100.00
2023-04-10T07:16:48.190Z,100.00
2023-04-10T07:19:33.726Z,100.00
2023-04-10T07:22:18.832Z,100.00
2023-04-10T07:25:04.419Z,100.00
2023-04-10T07:27:49.409Z,100.00
2023-04-10T07:30:34.658Z,100.00
2023-04-10T07:33:20.283Z,100.00
2023-04-10T07:36:07.059Z,100.00
2023-04-10T07:38:52.859Z,100.00
2023-04-10T07:41:38.541Z,100.00
2023-04-10T07:44:23.715Z,100.00
2023-04-10T07:47:09.091Z,100.00
2023-04-10T07:49:54.340Z,100.00
2023-04-10T07:52:39.719Z,100.00
2023-04-10T07:55:24.975Z,100.00
2023-04-10T07:58:10.956Z,100.00
2023-04-10T08:00:56.379Z,100.00
2023-04-10T08:03:47.612Z,100.00
2023-04-10T08:06:33.408Z,100.00
2023-04-10T08:09:18.439Z,100.00
2023-04-10T08:12:03.860Z,100.00
2023-04-10T08:14:49.529Z,100.00
2023-04-10T08:17:34.962Z,100.00
2023-04-10T08:20:20.389Z,100.00
2023-04-10T08:23:17.018Z,100.00
2023-04-10T08:26:05.846Z,100.00
2023-04-10T08:28:53.110Z,100.00
2023-04-10T08:31:38.736Z,100.00
2023-04-10T08:34:24.470Z,100.00
2023-04-10T08:37:12.253Z,100.00
2023-04-10T08:39:58.788Z,100.00
2023-04-10T08:42:44.019Z,100.00
2023-04-10T08:45:29.026Z,100.00
2023-04-10T08:48:16.352Z,100.00
2023-04-10T08:51:04.376Z,100.00
2023-04-10T08:53:51.969Z,100.00
2023-04-10T08:56:40.330Z,100.00
2023-04-10T08:59:25.651Z,100.00
2023-04-10T09:02:11.116Z,100.00
2023-04-10T09:05:00.614Z,100.00
2023-04-10T09:07:45.847Z,100.00
2023-04-10T09:10:31.692Z,100.00
2023-04-10T09:13:16.641Z,100.00
2023-04-10T09:16:02.103Z,100.00
2023-04-10T09:18:50.782Z,100.00
2023-04-10T09:21:36.050Z,100.00
2023-04-10T09:24:21.469Z,100.00
2023-04-10T09:27:07.620Z,100.00
2023-04-10T09:29:52.872Z,100.00
2023-04-10T09:32:41.448Z,100.00
2023-04-10T09:35:37.012Z,100.00
2023-04-10T09:38:22.402Z,100.00
2023-04-10T09:41:08.591Z,100.00
2023-04-10T09:44:08.033Z,100.00
2023-04-10T09:46:54.258Z,100.00
2023-04-10T09:50:06.552Z,100.00
2023-04-10T09:52:57.930Z,100.00
2023-04-10T09:55:43.807Z,100.00
2023-04-10T09:58:29.469Z,100.00
2023-04-10T10:01:15.081Z,100.00
2023-04-10T10:04:04.884Z,100.00
2023-04-10T10:06:50.545Z,100.00
2023-04-10T10:09:37.084Z,100.00
2023-04-10T10:12:27.283Z,100.00
2023-04-10T10:15:35.508Z,100.00
2023-04-10T10:18:44.095Z,100.00
2023-04-10T10:21:30.739Z,100.00
2023-04-10T10:24:17.258Z,100.00
2023-04-10T10:27:04.221Z,100.00
2023-04-10T10:29:50.550Z,100.00
2023-04-10T10:32:36.619Z,100.00
2023-04-10T10:35:25.462Z,100.00
2023-04-10T10:38:12.789Z,100.00
2023-04-10T10:41:28.716Z,100.00
2023-04-10T10:44:52.686Z,100.00
2023-04-10T10:47:50.870Z,100.00
2023-04-10T10:50:59.260Z,100.00
2023-04-10T10:53:45.341Z,100.00
2023-04-10T10:56:34.668Z,100.00
2023-04-10T10:59:48.938Z,100.00
2023-04-10T11:02:34.471Z,100.00
2023-04-10T11:05:55.295Z,100.00
2023-04-10T11:08:44.356Z,100.00
2023-04-10T11:11:29.774Z,100.00
2023-04-10T11:14:18.036Z,100.00
2023-04-10T11:17:03.253Z,100.00
2023-04-10T11:20:00.583Z,100.00
2023-04-10T11:23:11.908Z,100.00
2023-04-10T11:25:57.517Z,100.00
2023-04-10T11:28:42.910Z,100.00
2023-04-10T11:31:28.764Z,100.00
2023-04-10T11:34:15.787Z,100.00
2023-04-10T11:37:03.014Z,100.00
2023-04-10T11:39:48.192Z,100.00
2023-04-10T11:42:33.558Z,100.00
2023-04-10T11:45:28.700Z,100.00
2023-04-10T11:48:17.054Z,100.00
2023-04-10T11:51:10.521Z,100.00
2023-04-10T11:54:13.885Z,100.00
2023-04-10T11:57:02.898Z,100.00
2023-04-10T11:59:51.421Z,100.00
2023-04-10T12:02:51.700Z,100.00
2023-04-10T12:05:55.436Z,99.72
2023-04-10T12:08:49.490Z,99.49
2023-04-10T12:11:35.108Z,98.79
2023-04-10T12:14:24.150Z,98.56
2023-04-10T12:17:11.127Z,98.22
2023-04-10T12:19:57.634Z,97.35
2023-04-10T12:22:44.254Z,96.73
2023-04-10T12:25:29.468Z,96.87
2023-04-10T12:28:19.081Z,96.41
2023-04-10T12:31:04.929Z,96.23
2023-04-10T12:33:53.670Z,96.25
2023-04-10T12:36:38.790Z,95.90
2023-04-10T12:39:24.973Z,95.21
2023-04-10T12:42:19.448Z,94.96
2023-04-10T12:45:05.599Z,95.01
2023-04-10T12:47:54.164Z,94.63
2023-04-10T12:50:49.872Z,94.44
2023-04-10T12:53:44.479Z,94.58
2023-04-10T12:56:41.067Z,94.41
2023-04-10T12:59:26.917Z,92.77
2023-04-10T13:02:12.237Z,93.20
2023-04-10T13:04:57.642Z,93.10
2023-04-10T13:07:43.281Z,93.84
2023-04-10T13:10:28.763Z,93.81
2023-04-10T13:13:14.312Z,95.31
2023-04-10T13:16:00.134Z,94.02
2023-04-10T13:18:45.252Z,93.04
2023-04-10T13:21:30.521Z,92.62
2023-04-10T13:24:16.759Z,92.98
2023-04-10T13:27:02.356Z,92.93
2023-04-10T13:29:47.460Z,91.74
2023-04-10T13:32:32.582Z,93.16
2023-04-10T13:35:17.918Z,91.47
2023-04-10T13:38:04.077Z,92.42
2023-04-10T13:40:49.562Z,93.08
2023-04-10T13:43:34.764Z,93.45
2023-04-10T13:46:20.215Z,93.84
2023-04-10T13:49:06.796Z,94.35
2023-04-10T13:51:52.043Z,94.22
2023-04-10T13:54:37.412Z,92.89
2023-04-10T13:57:22.649Z,92.63
2023-04-10T14:00:08.657Z,91.93
2023-04-10T14:02:53.788Z,91.56
2023-04-10T14:05:39.641Z,91.81
2023-04-10T14:08:24.676Z,91.44
2023-04-10T14:11:09.888Z,91.40
2023-04-10T14:13:55.470Z,91.33
2023-04-10T14:16:40.651Z,91.02
2023-04-10T14:19:25.934Z,90.95
2023-04-10T14:22:11.320Z,90.51
2023-04-10T14:25:09.398Z,90.29
2023-04-10T14:27:57.628Z,89.94
2023-04-10T14:30:43.738Z,90.71
2023-04-10T14:33:29.063Z,90.58
2023-04-10T14:36:14.388Z,91.10
2023-04-10T14:38:59.750Z,90.26
2023-04-10T14:41:45.251Z,90.07
2023-04-10T14:44:30.828Z,91.02
2023-04-10T14:47:15.865Z,90.10
2023-04-10T14:50:00.938Z,89.92
2023-04-10T14:52:46.575Z,89.43
2023-04-10T14:55:32.003Z,88.37
2023-04-10T14:58:17.269Z,89.12
2023-04-10T15:01:02.565Z,88.19
2023-04-10T15:03:48.712Z,88.03
2023-04-10T15:06:34.378Z,88.44
2023-04-10T15:09:21.479Z,87.62
2023-04-10T15:12:07.470Z,87.24
2023-04-10T15:14:52.553Z,86.65
2023-04-10T15:17:38.106Z,87.60
2023-04-10T15:20:23.429Z,88.44
2023-04-10T15:23:09.140Z,89.49
2023-04-10T15:25:55.114Z,91.18
2023-04-10T15:28:41.490Z,92.15
2023-04-10T15:31:26.950Z,92.97
2023-04-10T15:34:13.332Z,94.14
2023-04-10T15:36:58.615Z,94.37
2023-04-10T15:39:43.915Z,95.51
2023-04-10T15:42:29.518Z,95.34
2023-04-10T15:45:14.818Z,95.85
2023-04-10T15:48:01.349Z,97.41
2023-04-10T15:50:46.524Z,100.00
2023-04-10T15:53:31.910Z,100.00
2023-04-10T15:56:17.163Z,100.00
2023-04-10T15:59:05.261Z,100.00
2023-04-10T16:01:50.651Z,100.00
2023-04-10T16:04:35.994Z,100.00
2023-04-10T16:07:21.491Z,100.00
2023-04-10T16:10:09.185Z,100.00
2023-04-10T16:12:56.487Z,100.00
2023-04-10T16:15:41.822Z,100.00
2023-04-10T16:18:27.441Z,100.00
2023-04-10T16:21:14.323Z,100.00
2023-04-10T16:24:00.933Z,100.00
2023-04-10T16:26:46.382Z,100.00
2023-04-10T16:29:31.625Z,100.00
2023-04-10T16:32:19.412Z,100.00
2023-04-10T16:35:04.916Z,100.00
2023-04-10T16:37:50.370Z,100.00
2023-04-10T16:40:35.366Z,100.00
2023-04-10T16:43:21.297Z,100.00
2023-04-10T16:46:07.922Z,100.00
2023-04-10T16:48:53.604Z,100.00
2023-04-10T16:51:39.143Z,100.00
2023-04-10T16:54:24.063Z,100.00
2023-04-10T16:57:09.456Z,100.00
2023-04-10T16:59:59.006Z,100.00
2023-04-10T17:02:44.203Z,100.00
2023-04-10T17:05:34.857Z,99.93
2023-04-10T17:08:19.849Z,99.55
2023-04-10T17:11:05.333Z,98.46
2023-04-10T17:13:50.641Z,98.03
2023-04-10T17:16:35.830Z,97.99
2023-04-10T17:19:21.223Z,97.88
2023-04-10T17:22:15.446Z,97.65
2023-04-10T17:25:00.963Z,97.93
2023-04-10T17:27:46.421Z,98.32
2023-04-10T17:30:31.663Z,96.78
2023-04-10T17:33:16.934Z,96.53
2023-04-10T17:36:02.454Z,96.56
2023-04-10T17:38:47.963Z,95.64
2023-04-10T17:41:33.120Z,96.03
2023-04-10T17:44:19.589Z,95.44
2023-04-10T17:47:05.188Z,95.21
2023-04-10T17:49:50.299Z,95.10
2023-04-10T17:52:35.548Z,95.86
2023-04-10T17:55:21.398Z,95.85
2023-04-10T17:58:07.244Z,95.50
2023-04-10T18:00:52.750Z,95.88
2023-04-10T18:03:38.625Z,95.43
2023-04-10T18:06:24.566Z,96.26
2023-04-10T18:09:09.671Z,96.49
2023-04-10T18:11:55.013Z,96.45
2023-04-10T18:14:42.539Z,97.09
2023-04-10T18:17:27.611Z,96.40
2023-04-10T18:20:12.814Z,96.49
2023-04-10T18:22:58.006Z,96.97
2023-04-10T18:25:52.109Z,96.65
2023-04-10T18:28:38.744Z,96.83
2023-04-10T18:31:23.906Z,96.94
2023-04-10T18:34:09.075Z,96.54
2023-04-10T18:36:55.617Z,96.42
2023-04-10T18:39:40.680Z,96.33
2023-04-10T18:42:27.721Z,96.42
2023-04-10T18:45:13.181Z,96.37
2023-04-10T18:47:58.614Z,96.71
2023-04-10T18:50:44.272Z,96.00
2023-04-10T18:53:29.492Z,95.60
2023-04-10T18:56:14.616Z,94.91
2023-04-10T18:58:59.947Z,94.86
2023-04-10T19:01:45.001Z,94.10
2023-04-10T19:04:30.358Z,94.46
2023-04-10T19:07:15.854Z,94.86
2023-04-10T19:10:01.335Z,95.24
2023-04-10T19:12:47.284Z,94.04
2023-04-10T19:15:32.390Z,93.40
2023-04-10T19:18:17.917Z,93.56
2023-04-10T19:21:04.231Z,93.61
2023-04-10T19:23:49.589Z,94.52
2023-04-10T19:26:34.999Z,94.24
2023-04-10T19:29:20.205Z,94.18
2023-04-10T19:32:05.653Z,95.06
2023-04-10T19:34:51.473Z,94.98
2023-04-10T19:37:36.574Z,94.72
2023-04-10T19:40:22.172Z,95.18
2023-04-10T19:43:07.196Z,95.09
2023-04-10T19:45:53.414Z,95.67
2023-04-10T19:48:38.589Z,95.56
2023-04-10T19:51:24.074Z,97.62
2023-04-10T19:54:09.292Z,96.91
2023-04-10T19:56:54.556Z,96.76
2023-04-10T19:59:39.836Z,96.39
2023-04-10T20:02:25.304Z,96.49
2023-04-10T20:05:10.799Z,96.21
2023-04-10T20:07:56.452Z,96.39
2023-04-10T20:10:41.490Z,96.80
2023-04-10T20:13:27.166Z,96.98
2023-04-10T20:16:12.685Z,96.45
2023-04-10T20:18:57.987Z,96.99
2023-04-10T20:21:43.242Z,97.17
2023-04-10T20:24:29.500Z,96.88
2023-04-10T20:27:15.565Z,96.72
2023-04-10T20:30:00.634Z,97.24
2023-04-10T20:32:47.056Z,97.15
2023-04-10T20:35:32.867Z,97.31
2023-04-10T20:38:18.303Z,97.12
2023-04-10T20:41:03.437Z,97.58
2023-04-10T20:43:48.691Z,96.80
2023-04-10T20:46:34.194Z,97.00
2023-04-10T20:49:19.432Z,96.17
2023-04-10T20:52:06.363Z,95.88
2023-04-10T20:54:51.690Z,95.81
2023-04-10T20:57:36.925Z,96.02
2023-04-10T21:00:22.402Z,95.28
2023-04-10T21:03:08.148Z,94.63
2023-04-10T21:05:54.049Z,94.21
2023-04-10T21:08:39.622Z,94.76
2023-04-10T21:11:27.257Z,94.87
2023-04-10T21:14:13.627Z,95.14
2023-04-10T21:16:58.806Z,94.94
2023-04-10T21:19:44.043Z,94.73
2023-04-10T21:22:29.579Z,94.97
2023-04-10T21:25:15.256Z,94.49
2023-04-10T21:28:00.715Z,94.92
2023-04-10T21:30:46.158Z,95.43
2023-04-10T21:33:32.665Z,95.29
2023-04-10T21:36:18.370Z,94.70
2023-04-10T21:39:03.712Z,94.63
2023-04-10T21:41:48.952Z,94.46
2023-04-10T21:44:34.310Z,94.40
2023-04-10T21:47:19.574Z,94.09
2023-04-10T21:50:05.538Z,93.98
2023-04-10T21:52:50.792Z,93.98
2023-04-10T21:55:36.034Z,94.11
2023-04-10T21:58:21.440Z,94.41
2023-04-10T22:01:08.090Z,94.72
2023-04-10T22:03:54.283Z,94.12
2023-04-10T22:06:39.416Z,94.16
2023-04-10T22:09:24.899Z,94.00
2023-04-10T22:12:10.368Z,94.48
2023-04-10T22:14:55.753Z,94.43
2023-04-10T22:17:41.151Z,94.45
2023-04-10T22:20:26.372Z,94.79
2023-04-10T22:23:11.718Z,94.88
2023-04-10T22:26:00.938Z,94.75
2023-04-10T22:28:46.305Z,95.14
2023-04-10T22:31:31.533Z,95.26
2023-04-10T22:34:16.753Z,95.13
2023-04-10T22:37:02.484Z,95.42
2023-04-10T22:39:47.559Z,95.46
2023-04-10T22:42:32.839Z,95.11
2023-04-10T22:45:18.331Z,95.60
2023-04-10T22:48:03.810Z,95.76
2023-04-10T22:50:49.454Z,95.96
2023-04-10T22:53:34.877Z,96.10
2023-04-10T22:56:26.142Z,96.45
2023-04-10T22:59:11.192Z,96.80
2023-04-10T23:01:56.557Z,96.69
2023-04-10T23:04:41.775Z,96.78
2023-04-10T23:07:27.952Z,96.94
2023-04-10T23:10:13.188Z,97.25
2023-04-10T23:12:58.710Z,97.03
2023-04-10T23:15:51.967Z,96.90
2023-04-10T23:18:37.657Z,98.00
2023-04-10T23:21:22.981Z,98.55
2023-04-10T23:24:08.256Z,98.09
2023-04-10T23:26:53.334Z,97.90
2023-04-10T23:29:38.558Z,97.91
2023-04-10T23:32:23.936Z,98.12
2023-04-10T23:35:09.439Z,99.05
2023-04-10T23:37:54.879Z,99.00
2023-04-10T23:40:39.846Z,99.09
2023-04-10T23:43:25.828Z,99.49
2023-04-10T23:46:10.925Z,99.22
2023-04-10T23:48:56.775Z,99.51
2023-04-10T23:51:42.047Z,99.35
2023-04-10T23:54:27.374Z,99.25
2023-04-10T23:57:12.815Z,99.50
2023-04-10T23:59:58.077Z,99.57
